sensor_id;sensor_type;location;lat;lon;timestamp;pressure;altitude;pressure_sealevel;temperature;humidity
56600;BME280;51832;48.152;11.530;2022-10-17T00:02:59;96091.63;;;20.63;56.46
56600;BME280;51832;48.152;11.530;2022-10-17T00:08:00;96081.72;;;20.63;57.08
56600;BME280;51832;48.152;11.530;2022-10-17T00:13:00;96088.16;;;20.42;56.86
56600;BME280;51832;48.152;11.530;2022-10-17T00:18:01;96087.88;;;20.33;56.79
56600;BME280;51832;48.152;11.530;2022-10-17T00:23:02;96089.72;;;20.02;57.36
56600;BME280;51832;48.152;11.530;2022-10-17T00:28:03;96085.94;;;19.98;57.52
56600;BME280;51832;48.152;11.530;2022-10-17T00:33:03;96083.50;;;19.66;58.43
56600;BME280;51832;48.152;11.530;2022-10-17T00:38:04;96092.72;;;19.38;60.18
56600;BME280;51832;48.152;11.530;2022-10-17T00:43:14;96090.06;;;19.43;60.03
56600;BME280;51832;48.152;11.530;2022-10-17T00:48:15;96105.19;;;19.90;58.35
56600;BME280;51832;48.152;11.530;2022-10-17T00:53:17;96104.38;;;19.90;58.11
56600;BME280;51832;48.152;11.530;2022-10-17T00:58:18;96099.56;;;19.81;58.66
56600;BME280;51832;48.152;11.530;2022-10-17T01:03:19;96096.63;;;19.88;58.19
56600;BME280;51832;48.152;11.530;2022-10-17T01:08:20;96106.72;;;19.71;59.13
56600;BME280;51832;48.152;11.530;2022-10-17T01:18:52;96106.97;;;19.54;59.80
56600;BME280;51832;48.152;11.530;2022-10-17T01:34:44;96093.06;;;19.52;60.22
56600;BME280;51832;48.152;11.530;2022-10-17T01:44:56;96099.94;;;18.86;61.32
56600;BME280;51832;48.152;11.530;2022-10-17T01:50:03;96073.25;;;18.80;61.43
56600;BME280;51832;48.152;11.530;2022-10-17T01:55:12;96098.09;;;18.91;60.56
56600;BME280;51832;48.152;11.530;2022-10-17T02:00:18;96102.06;;;18.84;61.53
56600;BME280;51832;48.152;11.530;2022-10-17T02:05:23;96100.72;;;18.86;60.61
56600;BME280;51832;48.152;11.530;2022-10-17T02:10:38;96103.88;;;18.78;61.10
56600;BME280;51832;48.152;11.530;2022-10-17T02:15:58;96089.00;;;18.18;62.54
56600;BME280;51832;48.152;11.530;2022-10-17T02:26:24;96091.19;;;17.94;63.37
56600;BME280;51832;48.152;11.530;2022-10-17T02:31:32;96083.19;;;17.89;63.05
56600;BME280;51832;48.152;11.530;2022-10-17T02:36:40;96094.97;;;17.98;63.16
56600;BME280;51832;48.152;11.530;2022-10-17T02:41:43;96088.22;;;17.64;64.20
56600;BME280;51832;48.152;11.530;2022-10-17T02:46:50;96095.47;;;17.47;64.70
56600;BME280;51832;48.152;11.530;2022-10-17T02:52:14;96083.63;;;17.59;63.83
56600;BME280;51832;48.152;11.530;2022-10-17T03:02:58;96095.78;;;17.28;64.89
56600;BME280;51832;48.152;11.530;2022-10-17T03:07:58;96096.94;;;17.37;64.19
56600;BME280;51832;48.152;11.530;2022-10-17T03:12:59;96103.84;;;17.82;62.17
56600;BME280;51832;48.152;11.530;2022-10-17T03:17:59;96106.97;;;18.01;62.16
56600;BME280;51832;48.152;11.530;2022-10-17T03:23:00;96092.88;;;18.05;61.96
56600;BME280;51832;48.152;11.530;2022-10-17T03:28:01;96099.78;;;17.74;62.83
56600;BME280;51832;48.152;11.530;2022-10-17T03:33:01;96112.59;;;18.04;61.88
56600;BME280;51832;48.152;11.530;2022-10-17T03:38:02;96119.38;;;18.17;61.35
56600;BME280;51832;48.152;11.530;2022-10-17T03:43:02;96121.25;;;18.17;61.45
56600;BME280;51832;48.152;11.530;2022-10-17T03:48:03;96115.63;;;18.18;61.14
56600;BME280;51832;48.152;11.530;2022-10-17T03:53:03;96122.25;;;18.10;61.28
56600;BME280;51832;48.152;11.530;2022-10-17T03:58:04;96120.16;;;17.91;61.80
56600;BME280;51832;48.152;11.530;2022-10-17T04:03:04;96122.81;;;17.86;62.15
56600;BME280;51832;48.152;11.530;2022-10-17T04:08:04;96118.19;;;17.76;62.01
56600;BME280;51832;48.152;11.530;2022-10-17T04:13:05;96115.81;;;17.58;62.55
56600;BME280;51832;48.152;11.530;2022-10-17T04:18:05;96132.03;;;17.56;62.30
56600;BME280;51832;48.152;11.530;2022-10-17T04:23:06;96131.00;;;17.35;62.56
56600;BME280;51832;48.152;11.530;2022-10-17T04:28:06;96120.72;;;17.44;62.39
56600;BME280;51832;48.152;11.530;2022-10-17T04:33:07;96130.50;;;18.73;70.99
56600;BME280;51832;48.152;11.530;2022-10-17T04:38:08;96133.56;;;19.44;64.71
56600;BME280;51832;48.152;11.530;2022-10-17T04:43:08;96137.28;;;19.43;57.20
56600;BME280;51832;48.152;11.530;2022-10-17T04:48:08;96140.03;;;18.64;58.82
56600;BME280;51832;48.152;11.530;2022-10-17T04:53:09;96146.53;;;18.19;60.37
56600;BME280;51832;48.152;11.530;2022-10-17T04:58:09;96144.34;;;17.84;61.58
56600;BME280;51832;48.152;11.530;2022-10-17T05:03:10;96146.34;;;17.72;62.16
56600;BME280;51832;48.152;11.530;2022-10-17T05:08:11;96149.25;;;17.49;62.63
56600;BME280;51832;48.152;11.530;2022-10-17T05:13:11;96151.13;;;17.53;62.68
56600;BME280;51832;48.152;11.530;2022-10-17T05:18:12;96160.63;;;17.44;63.18
56600;BME280;51832;48.152;11.530;2022-10-17T05:23:12;96158.94;;;17.38;63.36
56600;BME280;51832;48.152;11.530;2022-10-17T05:28:13;96164.66;;;17.47;63.33
56600;BME280;51832;48.152;11.530;2022-10-17T05:33:14;96169.16;;;17.46;63.08
56600;BME280;51832;48.152;11.530;2022-10-17T05:38:14;96179.81;;;17.46;63.09
56600;BME280;51832;48.152;11.530;2022-10-17T05:43:15;96176.34;;;17.46;62.90
56600;BME280;51832;48.152;11.530;2022-10-17T05:48:15;96184.81;;;17.42;62.53
56600;BME280;51832;48.152;11.530;2022-10-17T05:53:16;96194.06;;;17.18;64.83
56600;BME280;51832;48.152;11.530;2022-10-17T05:58:16;96197.09;;;17.27;63.68
56600;BME280;51832;48.152;11.530;2022-10-17T06:03:17;96204.47;;;17.20;64.25
56600;BME280;51832;48.152;11.530;2022-10-17T06:08:17;96206.00;;;17.37;63.79
56600;BME280;51832;48.152;11.530;2022-10-17T06:13:18;96212.91;;;17.55;62.74
56600;BME280;51832;48.152;11.530;2022-10-17T06:18:19;96211.38;;;17.59;63.04
56600;BME280;51832;48.152;11.530;2022-10-17T06:23:19;96206.56;;;17.78;62.37
56600;BME280;51832;48.152;11.530;2022-10-17T06:28:20;96217.94;;;17.95;62.21
56600;BME280;51832;48.152;11.530;2022-10-17T06:33:20;96205.59;;;18.11;61.76
56600;BME280;51832;48.152;11.530;2022-10-17T06:38:22;96216.50;;;18.09;61.85
56600;BME280;51832;48.152;11.530;2022-10-17T06:43:23;96217.88;;;18.39;61.21
56600;BME280;51832;48.152;11.530;2022-10-17T06:48:23;96224.59;;;18.68;59.52
56600;BME280;51832;48.152;11.530;2022-10-17T06:53:26;96233.25;;;18.86;58.27
56600;BME280;51832;48.152;11.530;2022-10-17T06:58:29;96241.41;;;19.06;57.20
56600;BME280;51832;48.152;11.530;2022-10-17T07:03:30;96244.00;;;18.96;56.73
56600;BME280;51832;48.152;11.530;2022-10-17T07:08:30;96239.28;;;18.49;57.83
56600;BME280;51832;48.152;11.530;2022-10-17T07:13:31;96239.59;;;18.53;57.42
56600;BME280;51832;48.152;11.530;2022-10-17T07:18:31;96246.69;;;17.93;57.86
56600;BME280;51832;48.152;11.530;2022-10-17T07:23:32;96257.81;;;18.61;55.85
56600;BME280;51832;48.152;11.530;2022-10-17T07:28:36;96272.09;;;18.76;55.48
56600;BME280;51832;48.152;11.530;2022-10-17T07:33:37;96281.66;;;19.04;53.85
56600;BME280;51832;48.152;11.530;2022-10-17T07:38:38;96294.69;;;19.33;53.60
56600;BME280;51832;48.152;11.530;2022-10-17T07:43:39;96302.75;;;19.75;52.40
56600;BME280;51832;48.152;11.530;2022-10-17T07:48:40;96292.72;;;20.02;52.03
56600;BME280;51832;48.152;11.530;2022-10-17T07:53:41;96300.38;;;20.41;51.32
56600;BME280;51832;48.152;11.530;2022-10-17T07:58:43;96301.59;;;21.46;59.74
56600;BME280;51832;48.152;11.530;2022-10-17T08:03:45;96299.88;;;22.11;54.72
56600;BME280;51832;48.152;11.530;2022-10-17T08:08:46;96299.44;;;22.48;52.43
56600;BME280;51832;48.152;11.530;2022-10-17T08:13:46;96289.06;;;22.31;52.08
56600;BME280;51832;48.152;11.530;2022-10-17T08:18:47;96301.44;;;22.17;51.08
56600;BME280;51832;48.152;11.530;2022-10-17T08:23:47;96302.03;;;22.09;48.74
56600;BME280;51832;48.152;11.530;2022-10-17T08:28:48;96301.72;;;22.21;51.40
56600;BME280;51832;48.152;11.530;2022-10-17T08:33:49;96297.22;;;22.65;52.25
56600;BME280;51832;48.152;11.530;2022-10-17T08:38:50;96295.63;;;23.09;49.45
56600;BME280;51832;48.152;11.530;2022-10-17T08:49:45;96301.63;;;22.90;47.24
56600;BME280;51832;48.152;11.530;2022-10-17T08:54:48;96305.78;;;21.88;48.02
56600;BME280;51832;48.152;11.530;2022-10-17T08:59:52;96306.78;;;22.27;48.79
56600;BME280;51832;48.152;11.530;2022-10-17T09:05:08;96305.13;;;22.37;47.03
56600;BME280;51832;48.152;11.530;2022-10-17T09:26:13;96306.41;;;22.49;46.35
56600;BME280;51832;48.152;11.530;2022-10-17T09:36:32;96315.19;;;22.60;45.23
56600;BME280;51832;48.152;11.530;2022-10-17T09:41:36;96317.25;;;22.24;45.61
56600;BME280;51832;48.152;11.530;2022-10-17T09:46:40;96306.28;;;22.20;46.46
56600;BME280;51832;48.152;11.530;2022-10-17T09:51:43;96316.94;;;22.36;46.35
56600;BME280;51832;48.152;11.530;2022-10-17T09:57:04;96314.78;;;22.32;46.54
56600;BME280;51832;48.152;11.530;2022-10-17T10:02:12;96318.91;;;22.05;46.55
56600;BME280;51832;48.152;11.530;2022-10-17T10:07:15;96326.44;;;21.87;47.50
56600;BME280;51832;48.152;11.530;2022-10-17T10:17:36;96334.69;;;22.16;46.92
56600;BME280;51832;48.152;11.530;2022-10-17T10:22:37;96327.28;;;22.57;46.00
56600;BME280;51832;48.152;11.530;2022-10-17T10:27:39;96325.53;;;22.87;45.23
56600;BME280;51832;48.152;11.530;2022-10-17T10:32:44;96326.41;;;23.16;44.86
56600;BME280;51832;48.152;11.530;2022-10-17T10:37:51;96333.66;;;23.21;44.13
56600;BME280;51832;48.152;11.530;2022-10-17T10:42:55;96324.19;;;23.62;43.40
56600;BME280;51832;48.152;11.530;2022-10-17T10:48:02;96326.56;;;23.93;43.06
56600;BME280;51832;48.152;11.530;2022-10-17T11:03:40;96319.66;;;24.10;41.50
56600;BME280;51832;48.152;11.530;2022-10-17T11:08:46;96310.88;;;24.71;40.95
56600;BME280;51832;48.152;11.530;2022-10-17T11:24:28;96309.53;;;24.88;38.83
56600;BME280;51832;48.152;11.530;2022-10-17T11:29:39;96295.78;;;25.27;38.43
56600;BME280;51832;48.152;11.530;2022-10-17T11:34:46;96313.94;;;25.54;36.39
56600;BME280;51832;48.152;11.530;2022-10-17T11:40:13;96291.03;;;25.97;36.24
56600;BME280;51832;48.152;11.530;2022-10-17T11:45:18;96295.03;;;26.00;33.52
56600;BME280;51832;48.152;11.530;2022-10-17T11:50:29;96300.06;;;26.06;33.19
56600;BME280;51832;48.152;11.530;2022-10-17T11:55:31;96305.66;;;26.24;32.46
56600;BME280;51832;48.152;11.530;2022-10-17T12:21:20;96291.72;;;27.74;31.20
56600;BME280;51832;48.152;11.530;2022-10-17T12:26:26;96284.56;;;28.18;31.20
56600;BME280;51832;48.152;11.530;2022-10-17T12:31:27;96283.53;;;28.27;29.59
56600;BME280;51832;48.152;11.530;2022-10-17T12:46:57;96279.72;;;28.37;30.07
56600;BME280;51832;48.152;11.530;2022-10-17T12:57:39;96287.09;;;28.54;28.87
56600;BME280;51832;48.152;11.530;2022-10-17T13:02:41;96282.22;;;29.08;28.52
56600;BME280;51832;48.152;11.530;2022-10-17T13:07:43;96283.97;;;29.12;27.93
56600;BME280;51832;48.152;11.530;2022-10-17T13:12:44;96273.31;;;29.88;26.94
56600;BME280;51832;48.152;11.530;2022-10-17T13:17:54;96275.22;;;29.88;26.31
56600;BME280;51832;48.152;11.530;2022-10-17T13:22:56;96271.84;;;29.99;25.70
56600;BME280;51832;48.152;11.530;2022-10-17T13:28:11;96281.56;;;30.68;24.56
56600;BME280;51832;48.152;11.530;2022-10-17T13:33:28;96275.16;;;30.43;23.99
56600;BME280;51832;48.152;11.530;2022-10-17T13:38:31;96282.56;;;29.87;24.90
56600;BME280;51832;48.152;11.530;2022-10-17T13:43:32;96283.63;;;30.42;25.55
56600;BME280;51832;48.152;11.530;2022-10-17T13:48:35;96276.75;;;30.73;26.77
56600;BME280;51832;48.152;11.530;2022-10-17T13:53:38;96280.91;;;31.33;25.61
56600;BME280;51832;48.152;11.530;2022-10-17T13:58:53;96280.47;;;31.64;24.02
56600;BME280;51832;48.152;11.530;2022-10-17T14:03:57;96277.00;;;32.86;22.03
56600;BME280;51832;48.152;11.530;2022-10-17T14:09:02;96281.03;;;34.03;21.00
56600;BME280;51832;48.152;11.530;2022-10-17T14:14:19;96280.03;;;35.48;20.06
56600;BME280;51832;48.152;11.530;2022-10-17T14:19:32;96292.97;;;36.61;18.27
56600;BME280;51832;48.152;11.530;2022-10-17T14:24:35;96296.84;;;37.47;17.16
56600;BME280;51832;48.152;11.530;2022-10-17T14:29:52;96290.88;;;39.25;16.22
56600;BME280;51832;48.152;11.530;2022-10-17T14:34:55;96299.72;;;39.62;15.21
56600;BME280;51832;48.152;11.530;2022-10-17T14:40:02;96300.63;;;40.62;14.29
56600;BME280;51832;48.152;11.530;2022-10-17T14:45:07;96299.75;;;41.15;13.74
56600;BME280;51832;48.152;11.530;2022-10-17T14:55:26;96295.09;;;44.14;11.49
56600;BME280;51832;48.152;11.530;2022-10-17T15:00:27;96315.53;;;43.02;12.64
56600;BME280;51832;48.152;11.530;2022-10-17T15:05:28;96313.91;;;42.63;13.46
56600;BME280;51832;48.152;11.530;2022-10-17T15:10:36;96314.75;;;41.03;14.72
56600;BME280;51832;48.152;11.530;2022-10-17T15:15:37;96303.75;;;40.25;15.80
56600;BME280;51832;48.152;11.530;2022-10-17T15:20:38;96304.81;;;38.81;16.75
56600;BME280;51832;48.152;11.530;2022-10-17T15:25:39;96316.63;;;39.64;16.25
56600;BME280;51832;48.152;11.530;2022-10-17T15:30:40;96329.31;;;38.08;17.21
56600;BME280;51832;48.152;11.530;2022-10-17T15:35:40;96320.69;;;35.88;18.97
56600;BME280;51832;48.152;11.530;2022-10-17T15:40:41;96313.72;;;34.63;20.62
56600;BME280;51832;48.152;11.530;2022-10-17T15:45:42;96317.38;;;34.35;21.02
56600;BME280;51832;48.152;11.530;2022-10-17T15:50:43;96329.06;;;33.88;21.83
56600;BME280;51832;48.152;11.530;2022-10-17T15:55:44;96331.97;;;32.88;22.78
56600;BME280;51832;48.152;11.530;2022-10-17T16:00:45;96336.88;;;31.88;24.11
56600;BME280;51832;48.152;11.530;2022-10-17T16:05:45;96341.75;;;31.62;25.15
56600;BME280;51832;48.152;11.530;2022-10-17T16:10:46;96344.81;;;31.60;25.26
56600;BME280;51832;48.152;11.530;2022-10-17T16:15:47;96351.03;;;31.61;25.20
56600;BME280;51832;48.152;11.530;2022-10-17T16:20:47;96347.09;;;31.17;26.56
56600;BME280;51832;48.152;11.530;2022-10-17T16:25:48;96354.28;;;30.71;27.55
56600;BME280;51832;48.152;11.530;2022-10-17T16:30:49;96354.59;;;30.31;30.40
56600;BME280;51832;48.152;11.530;2022-10-17T16:35:49;96362.19;;;30.09;30.37
56600;BME280;51832;48.152;11.530;2022-10-17T16:40:50;96364.00;;;29.79;31.59
56600;BME280;51832;48.152;11.530;2022-10-17T16:45:50;96361.63;;;29.60;32.13
56600;BME280;51832;48.152;11.530;2022-10-17T16:50:50;96370.75;;;29.38;31.46
56600;BME280;51832;48.152;11.530;2022-10-17T16:55:59;96375.66;;;29.10;32.12
56600;BME280;51832;48.152;11.530;2022-10-17T17:01:04;96372.25;;;28.87;32.34
56600;BME280;51832;48.152;11.530;2022-10-17T17:06:06;96387.91;;;28.59;33.13
56600;BME280;51832;48.152;11.530;2022-10-17T17:11:11;96383.56;;;28.41;33.74
56600;BME280;51832;48.152;11.530;2022-10-17T17:16:18;96385.22;;;28.20;34.16
56600;BME280;51832;48.152;11.530;2022-10-17T17:21:20;96396.44;;;27.82;34.65
56600;BME280;51832;48.152;11.530;2022-10-17T17:26:21;96394.50;;;27.38;35.00
56600;BME280;51832;48.152;11.530;2022-10-17T17:31:26;96418.16;;;27.33;34.26
56600;BME280;51832;48.152;11.530;2022-10-17T17:36:29;96406.28;;;27.06;34.47
56600;BME280;51832;48.152;11.530;2022-10-17T17:41:30;96415.13;;;26.98;35.05
56600;BME280;51832;48.152;11.530;2022-10-17T17:46:32;96419.31;;;27.04;36.38
56600;BME280;51832;48.152;11.530;2022-10-17T17:51:32;96425.81;;;26.76;36.97
56600;BME280;51832;48.152;11.530;2022-10-17T17:56:33;96432.31;;;26.75;37.91
56600;BME280;51832;48.152;11.530;2022-10-17T18:01:34;96422.91;;;26.72;37.58
56600;BME280;51832;48.152;11.530;2022-10-17T18:06:38;96427.59;;;26.67;38.24
56600;BME280;51832;48.152;11.530;2022-10-17T18:11:38;96420.94;;;26.50;38.99
56600;BME280;51832;48.152;11.530;2022-10-17T18:16:40;96427.78;;;26.29;38.93
56600;BME280;51832;48.152;11.530;2022-10-17T18:21:41;96430.97;;;25.99;38.32
56600;BME280;51832;48.152;11.530;2022-10-17T18:26:43;96435.50;;;26.03;39.29
56600;BME280;51832;48.152;11.530;2022-10-17T18:31:43;96425.25;;;25.87;39.63
56600;BME280;51832;48.152;11.530;2022-10-17T18:36:44;96434.50;;;25.67;39.99
56600;BME280;51832;48.152;11.530;2022-10-17T18:41:45;96432.22;;;25.55;40.71
56600;BME280;51832;48.152;11.530;2022-10-17T18:46:45;96437.38;;;25.52;40.34
56600;BME280;51832;48.152;11.530;2022-10-17T18:51:46;96438.84;;;25.25;40.96
56600;BME280;51832;48.152;11.530;2022-10-17T18:56:51;96439.78;;;24.92;42.39
56600;BME280;51832;48.152;11.530;2022-10-17T19:01:52;96435.81;;;24.65;43.01
56600;BME280;51832;48.152;11.530;2022-10-17T19:06:52;96435.69;;;24.28;44.11
56600;BME280;51832;48.152;11.530;2022-10-17T19:11:53;96440.78;;;24.29;43.92
56600;BME280;51832;48.152;11.530;2022-10-17T19:16:53;96442.59;;;24.05;45.11
56600;BME280;51832;48.152;11.530;2022-10-17T19:21:54;96438.28;;;23.75;46.05
56600;BME280;51832;48.152;11.530;2022-10-17T19:26:56;96444.59;;;23.55;46.66
56600;BME280;51832;48.152;11.530;2022-10-17T19:31:58;96446.13;;;23.22;47.58
56600;BME280;51832;48.152;11.530;2022-10-17T19:36:58;96440.44;;;23.29;47.47
56600;BME280;51832;48.152;11.530;2022-10-17T19:41:59;96446.25;;;22.97;48.58
56600;BME280;51832;48.152;11.530;2022-10-17T19:46:59;96436.13;;;22.74;48.72
56600;BME280;51832;48.152;11.530;2022-10-17T19:52:00;96432.50;;;22.34;50.51
56600;BME280;51832;48.152;11.530;2022-10-17T19:57:00;96440.59;;;22.04;50.82
56600;BME280;51832;48.152;11.530;2022-10-17T20:02:01;96435.69;;;22.46;49.66
56600;BME280;51832;48.152;11.530;2022-10-17T20:07:01;96444.22;;;22.68;49.69
56600;BME280;51832;48.152;11.530;2022-10-17T20:12:02;96447.09;;;22.87;49.21
56600;BME280;51832;48.152;11.530;2022-10-17T20:17:03;96448.97;;;22.87;49.15
56600;BME280;51832;48.152;11.530;2022-10-17T20:22:03;96454.34;;;22.87;49.07
56600;BME280;51832;48.152;11.530;2022-10-17T20:27:03;96456.25;;;22.71;49.89
56600;BME280;51832;48.152;11.530;2022-10-17T20:32:04;96456.84;;;22.58;50.04
56600;BME280;51832;48.152;11.530;2022-10-17T20:37:04;96458.97;;;22.61;49.36
56600;BME280;51832;48.152;11.530;2022-10-17T20:42:05;96473.22;;;22.51;49.19
56600;BME280;51832;48.152;11.530;2022-10-17T20:47:05;96469.25;;;22.28;49.90
56600;BME280;51832;48.152;11.530;2022-10-17T20:52:06;96473.56;;;22.19;50.02
56600;BME280;51832;48.152;11.530;2022-10-17T20:57:06;96472.22;;;21.96;51.25
56600;BME280;51832;48.152;11.530;2022-10-17T21:02:10;96464.44;;;21.70;52.56
56600;BME280;51832;48.152;11.530;2022-10-17T21:07:10;96477.00;;;21.64;52.49
56600;BME280;51832;48.152;11.530;2022-10-17T21:12:11;96467.88;;;21.40;52.42
56600;BME280;51832;48.152;11.530;2022-10-17T21:17:11;96472.69;;;21.38;52.56
56600;BME280;51832;48.152;11.530;2022-10-17T21:22:12;96468.81;;;20.98;54.17
56600;BME280;51832;48.152;11.530;2022-10-17T21:27:14;96455.66;;;20.91;54.25
56600;BME280;51832;48.152;11.530;2022-10-17T21:32:15;96460.66;;;20.68;55.08
56600;BME280;51832;48.152;11.530;2022-10-17T21:37:15;96455.22;;;20.47;55.71
56600;BME280;51832;48.152;11.530;2022-10-17T21:42:16;96464.47;;;20.82;54.54
56600;BME280;51832;48.152;11.530;2022-10-17T21:47:16;96470.31;;;20.74;54.14
56600;BME280;51832;48.152;11.530;2022-10-17T21:52:16;96459.31;;;20.23;56.24
56600;BME280;51832;48.152;11.530;2022-10-17T21:57:17;96458.38;;;20.39;54.93
56600;BME280;51832;48.152;11.530;2022-10-17T22:02:18;96449.31;;;20.50;54.49
56600;BME280;51832;48.152;11.530;2022-10-17T22:07:18;96451.19;;;20.45;54.76
56600;BME280;51832;48.152;11.530;2022-10-17T22:12:18;96445.53;;;20.41;54.42
56600;BME280;51832;48.152;11.530;2022-10-17T22:17:19;96444.53;;;20.47;54.59
56600;BME280;51832;48.152;11.530;2022-10-17T22:22:19;96452.63;;;20.26;54.88
56600;BME280;51832;48.152;11.530;2022-10-17T22:27:19;96441.03;;;20.10;55.39
56600;BME280;51832;48.152;11.530;2022-10-17T22:32:20;96441.34;;;20.13;55.58
56600;BME280;51832;48.152;11.530;2022-10-17T22:37:20;96449.03;;;20.05;55.88
56600;BME280;51832;48.152;11.530;2022-10-17T22:42:21;96447.44;;;19.67;56.01
56600;BME280;51832;48.152;11.530;2022-10-17T22:47:21;96449.50;;;19.97;55.06
56600;BME280;51832;48.152;11.530;2022-10-17T22:52:22;96452.41;;;19.90;54.02
56600;BME280;51832;48.152;11.530;2022-10-17T22:57:23;96458.50;;;19.80;54.11
56600;BME280;51832;48.152;11.530;2022-10-17T23:02:23;96456.44;;;19.93;53.42
56600;BME280;51832;48.152;11.530;2022-10-17T23:07:24;96447.91;;;19.96;52.77
56600;BME280;51832;48.152;11.530;2022-10-17T23:12:24;96449.75;;;19.90;54.18
56600;BME280;51832;48.152;11.530;2022-10-17T23:17:24;96449.31;;;20.03;54.45
56600;BME280;51832;48.152;11.530;2022-10-17T23:22:25;96448.78;;;20.06;53.17
56600;BME280;51832;48.152;11.530;2022-10-17T23:27:25;96439.06;;;19.90;54.49
56600;BME280;51832;48.152;11.530;2022-10-17T23:32:26;96441.97;;;19.88;54.97
56600;BME280;51832;48.152;11.530;2022-10-17T23:37:26;96447.16;;;19.14;58.51
56600;BME280;51832;48.152;11.530;2022-10-17T23:42:26;96447.06;;;19.04;58.61
56600;BME280;51832;48.152;11.530;2022-10-17T23:47:27;96444.88;;;19.01;59.26
56600;BME280;51832;48.152;11.530;2022-10-17T23:52:29;96451.19;;;19.17;58.92
56600;BME280;51832;48.152;11.530;2022-10-17T23:57:30;96446.53;;;18.80;59.50
